createdAt,value
2022-10-11T00:00:55.920Z,99.90
2022-10-11T00:08:22.034Z,99.90
2022-10-11T00:10:58.053Z,99.90
2022-10-11T00:13:27.959Z,99.90
2022-10-11T00:15:56.488Z,99.90
2022-10-11T00:18:25.427Z,99.90
2022-10-11T00:21:02.543Z,99.90
2022-10-11T00:25:59.714Z,99.90
2022-10-11T00:28:29.115Z,99.90
2022-10-11T00:33:25.719Z,99.90
2022-10-11T00:43:21.208Z,99.90
2022-10-11T00:46:06.754Z,99.90
2022-10-11T00:48:40.059Z,99.90
2022-10-11T00:51:15.133Z,99.90
2022-10-11T00:53:43.783Z,99.90
2022-10-11T00:56:24.877Z,99.90
2022-10-11T01:01:23.298Z,99.90
2022-10-11T01:08:48.222Z,99.90
2022-10-11T01:11:20.061Z,99.90
2022-10-11T01:14:03.651Z,99.90
2022-10-11T01:16:37.459Z,99.90
2022-10-11T01:19:17.271Z,99.90
2022-10-11T01:21:49.740Z,99.90
2022-10-11T01:24:53.539Z,99.90
2022-10-11T01:27:35.573Z,99.90
2022-10-11T01:30:25.646Z,99.90
2022-10-11T01:33:16.334Z,99.90
2022-10-11T01:35:54.360Z,99.90
2022-10-11T01:38:28.248Z,99.90
2022-10-11T01:41:00.004Z,99.90
2022-10-11T01:43:29.542Z,99.90
2022-10-11T01:46:01.441Z,99.90
2022-10-11T01:50:59.667Z,99.90
2022-10-11T01:53:46.987Z,99.90
2022-10-11T01:56:28.373Z,99.90
2022-10-11T01:59:12.127Z,99.90
2022-10-11T02:01:54.115Z,99.90
2022-10-11T02:04:32.238Z,99.90
2022-10-11T02:07:06.799Z,99.90
2022-10-11T02:09:39.311Z,99.90
2022-10-11T02:12:11.545Z,99.90
2022-10-11T02:14:44.647Z,99.90
2022-10-11T02:17:18.017Z,99.90
2022-10-11T02:19:50.539Z,99.90
2022-10-11T02:22:23.861Z,99.90
2022-10-11T02:24:56.524Z,99.90
2022-10-11T02:27:28.635Z,99.90
2022-10-11T02:29:58.531Z,99.90
2022-10-11T02:32:29.858Z,99.90
2022-10-11T02:34:59.944Z,99.90
2022-10-11T02:37:33.696Z,99.90
2022-10-11T02:40:07.833Z,99.90
2022-10-11T02:42:42.862Z,99.90
2022-10-11T02:45:17.301Z,99.90
2022-10-11T02:47:47.828Z,99.90
2022-10-11T02:50:16.544Z,99.90
2022-10-11T02:55:13.371Z,99.90
2022-10-11T03:00:10.817Z,99.90
2022-10-11T03:05:09.304Z,99.90
2022-10-11T03:10:06.205Z,99.90
2022-10-11T03:15:02.677Z,99.90
2022-10-11T03:20:05.942Z,99.90
2022-10-11T03:22:35.286Z,99.90
2022-10-11T03:32:30.289Z,99.90
2022-10-11T03:37:26.914Z,99.90
2022-10-11T03:39:56.417Z,99.90
2022-10-11T03:52:17.668Z,99.90
2022-10-11T03:57:15.424Z,99.90
2022-10-11T04:02:12.010Z,99.90
2022-10-11T04:04:40.088Z,99.90
2022-10-11T04:29:28.858Z,99.90
2022-10-11T04:32:01.639Z,99.90
2022-10-11T04:49:21.187Z,99.90
2022-10-11T05:24:01.820Z,99.90
2022-10-11T05:41:21.655Z,99.90
2022-10-11T05:58:49.963Z,99.90
2022-10-11T06:01:19.865Z,99.90
2022-10-11T06:16:14.821Z,99.90
2022-10-11T06:18:43.056Z,99.90
2022-10-11T06:21:11.302Z,99.90
2022-10-11T06:26:09.919Z,99.90
2022-10-11T06:33:38.553Z,99.90
2022-10-11T06:41:14.262Z,99.90
2022-10-11T06:46:10.766Z,99.90
2022-10-11T06:48:43.469Z,99.90
2022-10-11T07:11:08.110Z,99.90
2022-10-11T07:21:04.651Z,99.90
2022-10-11T07:23:34.840Z,99.90
2022-10-11T07:26:03.040Z,99.90
2022-10-11T07:28:31.882Z,99.90
2022-10-11T07:31:00.284Z,99.90
2022-10-11T07:35:58.812Z,99.90
2022-10-11T07:40:56.650Z,99.90
2022-10-11T07:45:55.544Z,99.90
2022-10-11T07:55:48.927Z,99.90
2022-10-11T07:58:18.357Z,99.90
2022-10-11T08:08:11.446Z,99.90
2022-10-11T08:10:40.097Z,99.90
2022-10-11T08:13:09.432Z,99.90
2022-10-11T08:15:38.901Z,99.90
2022-10-11T08:23:06.626Z,99.90
2022-10-11T08:25:39.315Z,99.90
2022-10-11T08:28:10.087Z,99.90
2022-10-11T08:30:41.282Z,99.90
2022-10-11T08:33:11.921Z,99.90
2022-10-11T08:35:41.284Z,99.90
2022-10-11T08:43:13.011Z,99.90
2022-10-11T08:45:46.996Z,99.90
2022-10-11T08:48:20.487Z,99.90
2022-10-11T08:50:53.212Z,99.90
2022-10-11T08:53:28.470Z,99.90
2022-10-11T08:55:57.043Z,99.90
2022-10-11T08:58:33.962Z,99.90
2022-10-11T09:01:04.579Z,99.90
2022-10-11T09:03:42.725Z,99.90
2022-10-11T09:06:21.221Z,99.90
2022-10-11T09:09:10.820Z,99.90
2022-10-11T09:11:52.162Z,99.90
2022-10-11T09:14:49.216Z,99.90
2022-10-11T09:17:31.504Z,99.90
2022-10-11T09:20:31.069Z,99.90
2022-10-11T09:23:03.846Z,99.90
2022-10-11T09:25:36.460Z,94.10
2022-10-11T09:28:13.462Z,92.90
2022-10-11T09:30:48.638Z,91.80
2022-10-11T09:33:22.068Z,91.60
2022-10-11T09:35:51.990Z,92.30
2022-10-11T09:38:29.053Z,90.20
2022-10-11T09:41:06.602Z,93.00
2022-10-11T09:43:34.703Z,93.60
2022-10-11T09:46:03.067Z,92.30
2022-10-11T09:48:41.327Z,91.90
2022-10-11T09:51:16.165Z,85.90
2022-10-11T09:53:56.080Z,81.10
2022-10-11T09:56:25.075Z,86.50
2022-10-11T09:59:09.100Z,88.40
2022-10-11T10:01:37.556Z,83.40
2022-10-11T10:04:09.968Z,86.80
2022-10-11T10:06:38.439Z,83.40
2022-10-11T10:09:26.472Z,85.30
2022-10-11T10:11:55.353Z,85.40
2022-10-11T10:14:26.521Z,85.40
2022-10-11T10:17:01.862Z,89.80
2022-10-11T10:19:44.811Z,90.30
2022-10-11T10:22:19.755Z,90.00
2022-10-11T10:24:49.308Z,92.60
2022-10-11T10:27:21.021Z,89.50
2022-10-11T10:30:13.232Z,87.40
2022-10-11T10:32:51.692Z,85.10
2022-10-11T10:35:37.458Z,91.20
2022-10-11T10:38:09.979Z,88.10
2022-10-11T10:40:43.742Z,91.80
2022-10-11T10:43:17.372Z,90.00
2022-10-11T10:45:59.219Z,84.30
2022-10-11T10:49:02.005Z,88.10
2022-10-11T10:51:35.755Z,88.60
2022-10-11T10:54:11.531Z,88.20
2022-10-11T10:56:46.187Z,84.20
2022-10-11T10:59:31.652Z,82.40
2022-10-11T11:02:15.946Z,79.80
2022-10-11T11:07:40.011Z,85.00
2022-10-11T11:10:15.266Z,79.50
2022-10-11T11:12:50.346Z,79.70
2022-10-11T11:15:31.314Z,77.80
2022-10-11T11:18:17.875Z,78.00
2022-10-11T11:20:58.764Z,77.70
2022-10-11T11:23:37.425Z,81.90
2022-10-11T11:26:11.487Z,81.70
2022-10-11T11:28:54.579Z,83.90
2022-10-11T11:31:33.730Z,79.40
2022-10-11T11:34:09.230Z,77.20
2022-10-11T11:36:42.807Z,82.10
2022-10-11T11:39:18.882Z,83.60
2022-10-11T11:41:51.856Z,81.10
2022-10-11T11:44:27.575Z,82.60
2022-10-11T11:47:01.032Z,83.80
2022-10-11T11:49:35.211Z,79.00
2022-10-11T11:52:05.068Z,82.60
2022-10-11T11:54:48.442Z,78.20
2022-10-11T11:57:26.807Z,79.60
2022-10-11T12:00:00.539Z,78.80
2022-10-11T12:02:44.858Z,82.20
2022-10-11T12:05:14.907Z,78.90
2022-10-11T12:07:56.667Z,79.80
2022-10-11T12:10:33.215Z,77.20
2022-10-11T12:13:31.180Z,78.30
2022-10-11T12:16:10.219Z,78.70
2022-10-11T12:18:50.817Z,78.90
2022-10-11T12:21:29.165Z,80.10
2022-10-11T12:24:00.073Z,80.10
2022-10-11T12:26:39.628Z,79.90
2022-10-11T12:29:40.372Z,77.00
2022-10-11T12:32:48.704Z,78.90
2022-10-11T12:35:42.493Z,77.80
2022-10-11T12:38:20.792Z,78.80
2022-10-11T12:40:50.128Z,81.20
2022-10-11T12:43:32.894Z,88.30
2022-10-11T12:46:34.387Z,89.00
2022-10-11T12:49:16.951Z,90.10
2022-10-11T12:51:56.595Z,90.50
2022-10-11T12:54:58.417Z,79.50
2022-10-11T12:57:49.729Z,86.00
2022-10-11T13:00:28.914Z,83.10
2022-10-11T13:05:28.472Z,79.50
2022-10-11T13:07:58.878Z,79.80
2022-10-11T13:10:31.734Z,72.40
2022-10-11T13:13:04.718Z,77.80
2022-10-11T13:15:35.487Z,75.00
2022-10-11T13:18:03.932Z,72.00
2022-10-11T13:20:37.610Z,77.80
2022-10-11T13:23:21.230Z,75.10
2022-10-11T13:25:49.526Z,78.40
2022-10-11T13:30:49.990Z,63.10
2022-10-11T13:33:22.200Z,69.50
2022-10-11T13:38:22.417Z,66.80
2022-10-11T13:40:51.388Z,68.20
2022-10-11T13:43:22.906Z,68.50
2022-10-11T13:45:53.104Z,67.40
2022-10-11T13:48:21.650Z,68.70
2022-10-11T13:51:08.052Z,68.00
2022-10-11T13:53:36.226Z,65.40
2022-10-11T13:56:06.876Z,61.90
2022-10-11T13:58:40.415Z,67.60
2022-10-11T14:01:20.551Z,67.80
2022-10-11T14:03:50.818Z,64.50
2022-10-11T14:06:18.913Z,66.60
2022-10-11T14:08:50.531Z,67.30
2022-10-11T14:11:34.542Z,66.70
2022-10-11T14:14:39.846Z,66.50
2022-10-11T14:17:15.131Z,63.10
2022-10-11T14:19:43.578Z,63.80
2022-10-11T14:22:15.068Z,66.60
2022-10-11T14:24:43.731Z,67.30
2022-10-11T14:27:17.351Z,69.60
2022-10-11T14:29:55.547Z,70.50
2022-10-11T14:32:37.257Z,71.60
2022-10-11T14:35:06.864Z,67.30
2022-10-11T14:37:34.876Z,68.50
2022-10-11T14:42:31.263Z,73.20
2022-10-11T14:44:59.227Z,71.90
2022-10-11T14:47:27.283Z,71.10
2022-10-11T14:49:56.727Z,70.20
2022-10-11T14:59:49.857Z,74.20
2022-10-11T15:07:15.791Z,70.30
2022-10-11T15:12:12.088Z,71.40
2022-10-11T15:17:08.411Z,74.50
2022-10-11T15:22:05.986Z,76.50
2022-10-11T15:24:35.364Z,79.10
2022-10-11T15:32:00.163Z,78.90
2022-10-11T15:39:30.576Z,77.60
2022-10-11T15:42:00.259Z,81.80
2022-10-11T15:44:28.283Z,82.70
2022-10-11T15:51:53.098Z,86.70
2022-10-11T15:54:21.159Z,88.30
2022-10-11T15:59:18.879Z,85.90
2022-10-11T16:01:46.978Z,89.10
2022-10-11T16:09:11.612Z,89.60
2022-10-11T16:11:39.597Z,90.80
2022-10-11T16:16:38.444Z,92.10
2022-10-11T16:24:03.283Z,93.80
2022-10-11T16:33:57.984Z,94.80
2022-10-11T16:39:15.973Z,99.00
2022-10-11T16:44:14.470Z,98.80
2022-10-11T16:49:12.434Z,99.30
2022-10-11T17:06:34.797Z,99.90
2022-10-11T17:14:01.676Z,99.90
2022-10-11T17:23:56.631Z,99.90
2022-10-11T17:26:27.229Z,99.90
2022-10-11T17:28:55.753Z,99.90
2022-10-11T17:31:24.488Z,99.90
2022-10-11T17:36:24.475Z,99.90
2022-10-11T17:38:53.529Z,99.90
2022-10-11T17:41:22.969Z,99.90
2022-10-11T17:46:22.199Z,99.90
2022-10-11T17:48:52.362Z,99.90
2022-10-11T17:51:20.578Z,99.90
2022-10-11T17:53:50.764Z,99.90
2022-10-11T17:56:25.305Z,99.90
2022-10-11T17:58:58.747Z,99.90
2022-10-11T18:01:29.417Z,99.90
2022-10-11T18:03:59.615Z,99.90
2022-10-11T18:06:29.906Z,99.90
2022-10-11T18:16:27.372Z,99.90
2022-10-11T18:18:57.319Z,99.90
2022-10-11T18:24:02.558Z,99.90
2022-10-11T18:28:59.971Z,99.90
2022-10-11T18:31:31.792Z,99.90
2022-10-11T18:36:30.689Z,99.90
2022-10-11T18:39:00.904Z,99.90
2022-10-11T18:41:31.799Z,99.90
2022-10-11T18:44:01.808Z,99.90
2022-10-11T18:46:31.898Z,99.90
2022-10-11T18:49:02.220Z,99.90
2022-10-11T18:51:32.072Z,99.90
2022-10-11T18:54:00.743Z,99.90
2022-10-11T18:56:30.635Z,99.90
2022-10-11T19:01:31.726Z,99.90
2022-10-11T19:04:01.835Z,99.90
2022-10-11T19:06:32.794Z,99.90
2022-10-11T19:09:02.734Z,99.90
2022-10-11T19:11:31.907Z,99.90
2022-10-11T19:14:01.704Z,99.90
2022-10-11T19:16:31.657Z,99.90
2022-10-11T19:21:28.489Z,99.90
2022-10-11T19:26:28.743Z,99.90
2022-10-11T19:28:58.548Z,99.90
2022-10-11T19:31:27.241Z,99.90
2022-10-11T19:33:57.801Z,99.90
2022-10-11T19:36:26.344Z,99.90
2022-10-11T19:38:56.724Z,99.90
2022-10-11T19:41:27.404Z,99.90
2022-10-11T19:49:20.237Z,99.90
2022-10-11T19:56:45.692Z,99.90
2022-10-11T20:01:46.671Z,99.90
2022-10-11T20:04:40.052Z,99.90
2022-10-11T20:12:03.899Z,99.90
2022-10-11T20:19:31.265Z,99.90
2022-10-11T20:31:58.871Z,99.90
2022-10-11T20:34:28.238Z,99.90
2022-10-11T20:36:57.641Z,99.90
2022-10-11T20:54:18.447Z,99.90
2022-10-11T21:01:43.811Z,99.90
2022-10-11T21:04:18.576Z,99.90
2022-10-11T21:11:46.987Z,99.90
2022-10-11T21:19:15.640Z,99.90
2022-10-11T21:59:17.476Z,99.90
2022-10-11T22:01:46.951Z,99.90
2022-10-11T22:19:06.478Z,99.90
2022-10-11T22:33:58.554Z,99.90
2022-10-11T23:11:11.470Z,99.90
2022-10-11T23:16:08.521Z,99.90
2022-10-11T23:21:06.214Z,99.90
2022-10-11T23:45:55.360Z,99.90
